Time;durP1;ratioP1;P1;durP2;ratioP2;P2;SDS_P1;SDS_P2;PMS_P1;PMS_P2;Temp;Humidity;BMP_temperature;BMP_pressure;BME280_temperature;BME280_humidity;BME280_pressure;Samples;Min_cycle;Max_cycle;Signal;HPM_P1;HPM_P2
2023/11/17 06:02:47;;;;;;;1.85;0.80;;;6.70;89.00;;;;;;4036880;29;20072;-77
2023/11/17 06:04:49;;;;;;;2.60;1.17;;;6.80;89.20;;;;;;4043554;29;20041;-80
2023/11/17 06:06:51;;;;;;;2.75;0.93;;;6.80;89.20;;;;;;4054578;29;20088;-80
2023/11/17 06:08:53;;;;;;;3.58;1.08;;;6.80;88.80;;;;;;4041317;29;20410;-81
2023/11/17 06:10:55;;;;;;;1.63;0.80;;;6.70;88.80;;;;;;4038774;29;20049;-80
2023/11/17 06:12:56;;;;;;;1.63;0.80;;;6.70;89.30;;;;;;4038803;29;20057;-77
2023/11/17 06:14:58;;;;;;;2.15;0.85;;;6.70;89.30;;;;;;4038836;29;20494;-78
2023/11/17 06:17:03;;;;;;;1.98;0.80;;;6.70;89.40;;;;;;4038766;29;20403;-80
2023/11/17 06:19:08;;;;;;;2.17;0.80;;;6.80;89.60;;;;;;4038280;29;20090;-79
2023/11/17 06:21:10;;;;;;;1.65;0.60;;;6.80;89.50;;;;;;4038620;29;20117;-79
2023/11/17 06:23:12;;;;;;;1.65;0.70;;;6.80;89.40;;;;;;4038588;29;20384;-81
2023/11/17 06:25:14;;;;;;;1.77;0.80;;;6.80;89.30;;;;;;4038691;29;20104;-80
2023/11/17 06:27:16;;;;;;;1.60;0.70;;;6.70;89.10;;;;;;4038547;29;20098;-78
2023/11/17 06:29:18;;;;;;;1.70;0.68;;;6.70;88.90;;;;;;4038651;29;20483;-79
2023/11/17 06:31:21;;;;;;;1.35;0.60;;;6.70;89.00;;;;;;4038684;29;20109;-78
2023/11/17 06:33:23;;;;;;;1.10;0.60;;;6.70;89.30;;;;;;4038564;29;20175;-80
2023/11/17 06:35:27;;;;;;;2.20;0.70;;;6.70;89.20;;;;;;4038596;29;20144;-80
2023/11/17 06:37:28;;;;;;;1.38;0.50;;;6.70;89.30;;;;;;4038763;29;20200;-79
2023/11/17 06:39:31;;;;;;;1.10;0.50;;;6.70;89.10;;;;;;4039202;29;20048;-78
2023/11/17 06:41:33;;;;;;;1.27;0.50;;;6.70;89.20;;;;;;4038964;29;20057;-81
2023/11/17 06:43:35;;;;;;;1.23;0.55;;;6.70;89.30;;;;;;4038947;29;20053;-77
2023/11/17 06:45:37;;;;;;;1.13;0.68;;;6.70;89.00;;;;;;4038666;29;20440;-79
2023/11/17 06:47:43;;;;;;;1.58;0.70;;;6.70;89.10;;;;;;4038517;29;20602;-78
2023/11/17 06:49:44;;;;;;;1.42;0.60;;;6.70;89.30;;;;;;4038566;29;20080;-79
2023/11/17 06:51:48;;;;;;;1.35;0.50;;;6.60;89.20;;;;;;4040016;29;20419;-78
2023/11/17 06:53:51;;;;;;;1.13;0.60;;;6.70;89.10;;;;;;4040352;29;20105;-79
2023/11/17 06:55:53;;;;;;;1.42;0.60;;;6.60;89.00;;;;;;4040021;29;20441;-79
2023/11/17 06:57:55;;;;;;;2.22;0.70;;;6.60;89.00;;;;;;4023365;29;20085;-81
2023/11/17 06:59:56;;;;;;;1.33;0.50;;;6.60;89.10;;;;;;4022923;29;20471;-80
2023/11/17 07:01:58;;;;;;;1.23;0.70;;;6.70;89.10;;;;;;4022694;29;20053;-78
2023/11/17 07:04:02;;;;;;;1.65;0.60;;;6.60;89.10;;;;;;4022992;29;20424;-78
2023/11/17 07:06:06;;;;;;;1.48;0.60;;;6.70;89.30;;;;;;4022921;29;20118;-80
2023/11/17 07:08:10;;;;;;;1.88;0.60;;;6.70;89.30;;;;;;4022717;29;20053;-78
2023/11/17 07:10:14;;;;;;;1.50;0.75;;;6.70;89.00;;;;;;4022515;29;20145;-78
2023/11/17 07:12:16;;;;;;;1.48;0.70;;;6.70;89.30;;;;;;4022811;29;20077;-79
2023/11/17 07:14:19;;;;;;;1.45;0.65;;;6.70;89.40;;;;;;4022551;29;20054;-79
2023/11/17 07:16:21;;;;;;;1.85;0.70;;;6.70;89.50;;;;;;4022589;29;20061;-80
2023/11/17 07:18:23;;;;;;;1.27;0.60;;;6.70;89.20;;;;;;4022724;29;20097;-78
2023/11/17 07:20:24;;;;;;;2.15;0.70;;;6.70;89.30;;;;;;4022585;29;20057;-79
2023/11/17 07:22:27;;;;;;;2.72;1.00;;;6.60;89.40;;;;;;4022675;29;20049;-79
2023/11/17 07:24:30;;;;;;;2.40;0.80;;;6.60;89.80;;;;;;4022714;29;20057;-79
2023/11/17 07:26:33;;;;;;;3.08;1.00;;;6.60;89.20;;;;;;4022520;29;20046;-78
2023/11/17 07:28:35;;;;;;;2.15;0.75;;;6.60;89.60;;;;;;4022707;29;20065;-78
2023/11/17 07:30:37;;;;;;;3.30;1.20;;;6.60;89.20;;;;;;4023333;29;20402;-80
2023/11/17 07:32:38;;;;;;;2.25;0.85;;;6.60;89.80;;;;;;4022346;29;20049;-79
2023/11/17 07:34:40;;;;;;;3.75;0.90;;;6.60;89.70;;;;;;4024665;29;20540;-78
2023/11/17 07:36:42;;;;;;;2.83;0.93;;;6.60;89.60;;;;;;4053062;29;20081;-80
2023/11/17 07:38:51;;;;;;;2.17;0.90;;;6.60;89.60;;;;;;4053394;29;20143;-79
2023/11/17 07:40:54;;;;;;;2.63;1.02;;;6.60;89.90;;;;;;4053443;29;20491;-79
2023/11/17 07:42:55;;;;;;;2.55;1.13;;;6.70;90.00;;;;;;4053138;29;20056;-77
2023/11/17 07:44:57;;;;;;;2.22;0.90;;;6.60;90.00;;;;;;4053447;29;20499;-80
2023/11/17 07:47:03;;;;;;;1.98;0.90;;;6.60;90.10;;;;;;4053411;29;20459;-78
2023/11/17 07:49:06;;;;;;;;;;;6.70;90.10;;;;;;4053518;29;20087;-78
2023/11/17 07:51:08;;;;;;;2.10;0.90;;;6.60;90.00;;;;;;4053115;29;19924;-78
2023/11/17 07:53:10;;;;;;;2.83;0.93;;;6.60;90.00;;;;;;4053122;29;20049;-78
2023/11/17 07:55:13;;;;;;;2.42;0.77;;;6.60;90.20;;;;;;4052942;29;20095;-78
2023/11/17 07:57:17;;;;;;;2.40;0.98;;;6.60;90.20;;;;;;4042518;29;20053;-79
2023/11/17 07:59:21;;;;;;;4.63;0.93;;;6.60;90.30;;;;;;4037506;29;20092;-79
2023/11/17 08:01:24;;;;;;;2.35;0.98;;;6.60;90.40;;;;;;4037394;29;20064;-81
2023/11/17 08:03:25;;;;;;;2.50;0.90;;;6.60;90.50;;;;;;4037597;29;20072;-79
2023/11/17 08:05:27;;;;;;;2.08;1.00;;;6.60;90.50;;;;;;4039863;29;20049;-79
2023/11/17 08:07:31;;;;;;;1.95;0.90;;;6.60;90.60;;;;;;4037596;29;20049;-79
2023/11/17 08:09:34;;;;;;;2.40;1.00;;;6.60;90.60;;;;;;4037623;29;20093;-79
2023/11/17 08:11:35;;;;;;;2.75;1.05;;;6.60;90.50;;;;;;4037475;29;20049;-79
2023/11/17 08:13:39;;;;;;;2.28;1.00;;;6.60;90.60;;;;;;4037394;29;20049;-79
2023/11/17 08:15:41;;;;;;;2.70;1.05;;;6.60;90.60;;;;;;4037473;29;20200;-79
2023/11/17 08:17:42;;;;;;;2.20;1.00;;;6.60;90.60;;;;;;4037717;29;20052;-80
2023/11/17 08:19:44;;;;;;;2.40;1.13;;;6.60;90.70;;;;;;4037502;29;20064;-78
2023/11/17 08:21:47;;;;;;;3.90;1.38;;;6.70;90.70;;;;;;4037990;29;20117;-78
2023/11/17 08:23:49;;;;;;;2.53;1.17;;;6.70;90.60;;;;;;4037646;29;20147;-78
2023/11/17 08:25:51;;;;;;;2.53;1.20;;;6.70;90.50;;;;;;4037429;29;20049;-77
2023/11/17 08:27:53;;;;;;;2.50;1.10;;;6.70;90.50;;;;;;4037495;29;20116;-78
2023/11/17 08:29:57;;;;;;;3.42;1.50;;;6.70;90.50;;;;;;4037420;29;20542;-79
2023/11/17 08:31:59;;;;;;;3.08;1.20;;;6.70;90.40;;;;;;4037271;29;20052;-78
2023/11/17 08:34:01;;;;;;;3.00;1.30;;;6.80;90.50;;;;;;4037276;29;20053;-78
2023/11/17 08:36:03;;;;;;;6.88;3.15;;;6.80;90.40;;;;;;4037409;29;20049;-77
2023/11/17 08:38:07;;;;;;;5.80;1.40;;;6.80;90.40;;;;;;4037367;29;20078;-78
2023/11/17 08:40:10;;;;;;;15.68;7.35;;;6.80;90.30;;;;;;4037382;29;20053;-79
2023/11/17 08:42:13;;;;;;;3.88;1.58;;;6.90;90.20;;;;;;4037777;29;20045;-78
2023/11/17 08:44:14;;;;;;;2.63;1.30;;;6.90;90.20;;;;;;4040440;29;20053;-77
2023/11/17 08:46:18;;;;;;;3.30;1.50;;;6.90;90.20;;;;;;4040274;29;20049;-79
2023/11/17 08:48:21;;;;;;;4.18;1.73;;;7.00;90.20;;;;;;4040068;29;20049;-79
2023/11/17 08:50:22;;;;;;;3.47;1.33;;;7.00;90.30;;;;;;4040136;29;20053;-79
2023/11/17 08:52:24;;;;;;;2.80;1.40;;;7.00;90.20;;;;;;4040028;29;20049;-78
2023/11/17 08:54:26;;;;;;;2.92;1.30;;;7.00;90.10;;;;;;4039944;29;20057;-78
2023/11/17 08:56:28;;;;;;;3.45;1.30;;;7.00;90.00;;;;;;4039881;29;20052;-78
2023/11/17 08:58:29;;;;;;;3.00;1.23;;;7.00;89.80;;;;;;4039943;29;20332;-79
2023/11/17 09:00:31;;;;;;;2.60;1.10;;;7.00;90.00;;;;;;4039728;29;20112;-78
2023/11/17 09:02:34;;;;;;;3.47;1.45;;;7.10;89.70;;;;;;4040031;29;20106;-80
2023/11/17 09:04:36;;;;;;;4.43;1.20;;;7.10;90.00;;;;;;4039863;29;20053;-78
2023/11/17 09:06:37;;;;;;;2.92;1.13;;;7.10;89.90;;;;;;4039800;29;20483;-80
2023/11/17 09:08:39;;;;;;;2.97;0.98;;;7.10;89.60;;;;;;4039896;29;20056;-75
2023/11/17 09:10:40;;;;;;;5.93;2.40;;;7.10;89.80;;;;;;4039964;29;20057;-77
2023/11/17 09:12:43;;;;;;;4.45;1.50;;;7.20;89.90;;;;;;4040074;29;20053;-78
2023/11/17 09:14:45;;;;;;;9.25;4.45;;;7.20;89.80;;;;;;4039800;29;20055;-78
2023/11/17 09:16:47;;;;;;;2.83;0.98;;;7.20;90.00;;;;;;4039648;29;20080;-79
2023/11/17 09:18:50;;;;;;;4.53;1.70;;;7.20;89.30;;;;;;4039865;29;20396;-79
2023/11/17 09:20:52;;;;;;;2.65;1.08;;;7.20;88.80;;;;;;4039755;29;20403;-76
2023/11/17 09:22:54;;;;;;;2.55;1.27;;;7.30;88.20;;;;;;4039646;29;20053;-75
2023/11/17 09:24:56;;;;;;;2.60;1.00;;;7.30;88.20;;;;;;4039854;29;20142;-78
2023/11/17 09:26:58;;;;;;;2.47;0.90;;;7.30;87.90;;;;;;4039390;29;20081;-75
2023/11/17 09:29:00;;;;;;;2.58;1.00;;;7.30;87.10;;;;;;4039599;29;20053;-76
2023/11/17 09:31:02;;;;;;;2.75;1.10;;;7.30;87.40;;;;;;4039454;29;20052;-77
2023/11/17 09:33:04;;;;;;;2.45;0.77;;;7.30;88.30;;;;;;4039496;29;20052;-76
2023/11/17 09:35:13;;;;;;;1.90;0.90;;;7.30;87.00;;;;;;4039353;29;20053;-79
2023/11/17 09:37:16;;;;;;;3.40;0.98;;;7.30;86.80;;;;;;4039481;29;20049;-79
2023/11/17 09:39:18;;;;;;;3.40;1.00;;;7.30;87.90;;;;;;4039200;29;20053;-77
2023/11/17 09:41:21;;;;;;;1.85;0.90;;;7.30;87.50;;;;;;4039254;29;20049;-79
2023/11/17 09:43:24;;;;;;;2.25;1.00;;;7.30;87.60;;;;;;4036494;29;20057;-79
2023/11/17 09:45:27;;;;;;;2.10;0.90;;;7.30;86.90;;;;;;4037116;29;20056;-77
2023/11/17 09:47:31;;;;;;;2.22;0.88;;;7.30;86.90;;;;;;4037074;29;20124;-79
2023/11/17 09:49:34;;;;;;;1.80;0.80;;;7.30;86.70;;;;;;4037062;29;20068;-76
2023/11/17 09:51:37;;;;;;;2.72;0.90;;;7.30;86.80;;;;;;4037492;29;20057;-76
2023/11/17 09:53:41;;;;;;;2.33;1.00;;;7.40;86.80;;;;;;4036344;29;20076;-78
2023/11/17 09:55:44;;;;;;;2.03;0.88;;;7.40;87.40;;;;;;4036682;29;20063;-77
2023/11/17 09:57:46;;;;;;;1.98;0.73;;;7.40;86.50;;;;;;4036984;29;20128;-79
2023/11/17 09:59:49;;;;;;;1.88;0.73;;;7.50;86.90;;;;;;4037143;29;20160;-80
2023/11/17 10:01:56;;;;;;;1.48;0.68;;;7.50;86.30;;;;;;4037016;29;20064;-77
2023/11/17 10:04:02;;;;;;;1.75;0.80;;;7.50;85.90;;;;;;4036971;29;20048;-75
2023/11/17 10:06:06;;;;;;;2.03;0.77;;;7.50;85.20;;;;;;4034657;29;20081;-78
2023/11/17 10:08:13;;;;;;;1.35;0.60;;;7.50;85.10;;;;;;4036811;29;20076;-78
2023/11/17 10:10:14;;;;;;;2.00;0.80;;;7.60;85.50;;;;;;4036879;29;20099;-77
2023/11/17 10:12:17;;;;;;;2.60;0.80;;;7.50;85.30;;;;;;4036896;29;20053;-77
2023/11/17 10:14:25;;;;;;;1.85;0.80;;;7.40;85.70;;;;;;4036674;29;20057;-77
2023/11/17 10:16:28;;;;;;;1.85;0.80;;;7.50;86.30;;;;;;4037178;29;20052;-78
2023/11/17 10:18:33;;;;;;;2.53;0.90;;;7.50;85.90;;;;;;4036473;29;20136;-78
2023/11/17 10:20:37;;;;;;;1.90;0.70;;;7.50;86.20;;;;;;4036901;29;20053;-79
2023/11/17 10:22:42;;;;;;;2.05;0.80;;;7.50;85.60;;;;;;4036654;29;20411;-77
2023/11/17 10:24:46;;;;;;;1.50;0.70;;;7.50;85.80;;;;;;4036658;29;20065;-75
2023/11/17 10:26:49;;;;;;;3.38;1.00;;;7.50;85.80;;;;;;4036724;29;20436;-77
2023/11/17 10:28:54;;;;;;;1.50;0.68;;;7.50;85.30;;;;;;4036976;29;20396;-77
2023/11/17 10:31:05;;;;;;;3.03;0.85;;;7.60;85.40;;;;;;4036423;29;20044;-79
2023/11/17 10:33:19;;;;;;;2.30;0.90;;;7.50;85.00;;;;;;4035231;29;20472;-75
2023/11/17 10:35:31;;;;;;;2.20;0.80;;;7.60;85.50;;;;;;4034629;29;20105;-76
2023/11/17 10:37:34;;;;;;;3.42;0.90;;;7.60;85.10;;;;;;4037720;29;20317;-76
2023/11/17 10:39:52;;;;;;;2.28;0.80;;;7.60;84.90;;;;;;4036887;29;20504;-81
2023/11/17 10:41:54;;;;;;;11.82;6.40;;;7.60;84.80;;;;;;4037123;29;20053;-80
2023/11/17 10:43:59;;;;;;;4.60;2.08;;;7.60;85.70;;;;;;4035787;29;20109;-81
2023/11/17 10:46:01;;;;;;;1.85;0.70;;;7.60;85.40;;;;;;4036201;29;20088;-79
2023/11/17 10:48:06;;;;;;;1.92;0.77;;;7.60;85.00;;;;;;4036422;29;20406;-80
2023/11/17 10:50:09;;;;;;;1.50;0.70;;;7.60;84.80;;;;;;4036230;29;20345;-80
2023/11/17 10:52:26;;;;;;;2.00;0.80;;;7.60;85.10;;;;;;4036540;29;20049;-89
2023/11/17 10:54:32;;;;;;;1.63;0.70;;;7.60;84.80;;;;;;4023726;29;20128;-89
2023/11/17 10:56:38;;;;;;;2.00;0.70;;;7.60;84.60;;;;;;4039710;29;20057;-90
2023/11/17 10:58:55;;;;;;;1.85;0.70;;;7.70;84.70;;;;;;4040369;29;20063;-88
2023/11/17 11:00:57;;;;;;;2.35;0.80;;;7.70;84.90;;;;;;4042811;29;20087;-89
2023/11/17 11:02:58;;;;;;;2.78;0.70;;;7.70;84.30;;;;;;4040280;29;20085;-89
2023/11/17 11:05:03;;;;;;;1.98;0.82;;;7.70;83.90;;;;;;4035831;29;20052;-87
2023/11/17 11:07:06;;;;;;;2.22;0.77;;;7.70;84.50;;;;;;4020780;29;20084;-87
2023/11/17 11:09:09;;;;;;;2.75;0.90;;;7.70;85.10;;;;;;4035513;29;20068;-87
2023/11/17 11:11:16;;;;;;;2.78;1.20;;;7.80;85.10;;;;;;4035897;29;20059;-86
2023/11/17 11:13:26;;;;;;;3.30;1.33;;;7.80;83.90;;;;;;4037839;29;20052;-89
2023/11/17 11:15:28;;;;;;;1.80;0.73;;;7.70;84.20;;;;;;4022118;29;20058;-89
2023/11/17 11:17:32;;;;;;;1.48;0.63;;;7.80;83.80;;;;;;4036786;29;20060;-87
2023/11/17 11:19:35;;;;;;;2.80;0.80;;;7.70;83.50;;;;;;4038451;29;20463;-88
2023/11/17 11:21:38;;;;;;;1.35;0.68;;;7.70;84.00;;;;;;4037774;29;20061;-85
2023/11/17 11:23:41;;;;;;;2.28;0.90;;;7.80;84.20;;;;;;4036902;29;20487;-83
2023/11/17 11:25:45;;;;;;;1.90;0.85;;;7.80;83.90;;;;;;4019985;29;20144;-85
2023/11/17 11:27:49;;;;;;;1.33;0.63;;;7.80;84.20;;;;;;4020168;29;20140;-86
2023/11/17 11:29:52;;;;;;;1.90;0.70;;;7.80;84.00;;;;;;4037254;29;20564;-86
2023/11/17 11:31:56;;;;;;;1.85;0.80;;;7.80;83.80;;;;;;4042783;29;20056;-85
2023/11/17 11:33:58;;;;;;;3.13;0.88;;;7.80;83.10;;;;;;4044465;29;20053;-83
2023/11/17 11:36:01;;;;;;;1.88;0.80;;;7.70;83.20;;;;;;4044751;29;20065;-83
2023/11/17 11:38:04;;;;;;;2.38;0.90;;;7.70;84.00;;;;;;4044383;29;20049;-85
2023/11/17 11:40:12;;;;;;;2.05;0.88;;;7.70;83.80;;;;;;4042443;29;20431;-84
2023/11/17 11:42:14;;;;;;;3.60;1.05;;;7.80;84.30;;;;;;4045653;29;20080;-86
2023/11/17 11:44:16;;;;;;;2.40;0.90;;;7.80;84.10;;;;;;4041039;29;20071;-84
2023/11/17 11:46:23;;;;;;;2.17;0.75;;;7.80;83.90;;;;;;4037796;29;20487;-85
2023/11/17 11:48:30;;;;;;;2.83;0.73;;;7.80;84.00;;;;;;4038030;29;20162;-85
2023/11/17 11:50:37;;;;;;;4.93;2.42;;;7.90;84.30;;;;;;4037110;29;20092;-85
2023/11/17 11:52:50;;;;;;;2.00;0.80;;;7.80;85.10;;;;;;4036366;29;20136;-84
2023/11/17 11:54:52;;;;;;;2.00;0.80;;;7.80;84.80;;;;;;4038202;29;20065;-85
2023/11/17 11:56:57;;;;;;;2.35;0.85;;;7.70;84.80;;;;;;4023888;29;20053;-88
2023/11/17 11:59:00;;;;;;;1.77;0.70;;;7.70;85.00;;;;;;4037693;29;20053;-85
2023/11/17 12:01:02;;;;;;;3.22;0.85;;;7.70;85.30;;;;;;4037784;29;20147;-87
2023/11/17 12:03:08;;;;;;;1.95;0.70;;;7.70;85.10;;;;;;4022361;29;20101;-84
2023/11/17 12:05:10;;;;;;;2.58;0.75;;;7.70;85.30;;;;;;4035523;29;20263;-84
2023/11/17 12:07:33;;;;;;;1.75;0.70;;;7.70;85.50;;;;;;4034227;29;20138;-84
2023/11/17 12:09:39;;;;;;;2.13;0.90;;;7.70;85.70;;;;;;4021473;29;20057;-85
2023/11/17 12:11:44;;;;;;;2.80;0.90;;;7.70;85.30;;;;;;4021501;29;20054;-83
2023/11/17 12:13:49;;;;;;;1.73;0.75;;;7.70;85.70;;;;;;4030025;29;20057;-84
2023/11/17 12:15:51;;;;;;;1.27;0.68;;;7.70;85.80;;;;;;4038015;29;20060;-85
2023/11/17 12:17:59;;;;;;;2.58;0.90;;;7.70;85.80;;;;;;4038809;29;20519;-85
2023/11/17 12:20:23;;;;;;;1.70;0.68;;;7.70;86.00;;;;;;4040594;29;20056;-83
2023/11/17 12:22:25;;;;;;;1.52;0.60;;;7.70;85.50;;;;;;4040213;29;20439;-83
2023/11/17 12:24:30;;;;;;;1.70;0.70;;;7.70;85.90;;;;;;4024799;29;20054;-86
2023/11/17 12:26:32;;;;;;;32.10;15.43;;;7.80;85.70;;;;;;4039862;29;20061;-87
2023/11/17 12:28:38;;;;;;;5.70;2.55;;;7.70;85.50;;;;;;4039811;29;20101;-85
2023/11/17 12:30:40;;;;;;;9.80;5.22;;;7.70;85.50;;;;;;4040026;29;20483;-84
2023/11/17 12:32:46;;;;;;;9.20;4.70;;;7.70;85.30;;;;;;4038918;29;20468;-85
2023/11/17 12:34:50;;;;;;;2.85;1.10;;;7.70;85.40;;;;;;4039532;29;20471;-84
2023/11/17 12:37:00;;;;;;;2.75;0.82;;;7.70;85.40;;;;;;4039185;29;20406;-86
2023/11/17 12:39:06;;;;;;;2.10;0.80;;;7.70;85.60;;;;;;4039876;29;20563;-83
2023/11/17 12:41:10;;;;;;;3.65;0.80;;;7.70;85.80;;;;;;4039932;29;20136;-85
2023/11/17 12:43:12;;;;;;;2.00;0.77;;;7.70;86.10;;;;;;4040604;29;20170;-84
2023/11/17 12:45:16;;;;;;;1.73;0.70;;;7.70;85.90;;;;;;4037552;29;20052;-84
2023/11/17 12:47:19;;;;;;;2.63;0.73;;;7.70;85.40;;;;;;4038475;29;20059;-78
2023/11/17 12:49:21;;;;;;;2.47;0.80;;;7.70;85.90;;;;;;4038397;29;20142;-80
2023/11/17 12:51:25;;;;;;;1.73;0.80;;;7.70;85.40;;;;;;4039802;29;20049;-85
2023/11/17 12:53:39;;;;;;;2.05;0.70;;;7.70;85.70;;;;;;4039047;29;20060;-82
2023/11/17 12:55:47;;;;;;;2.35;0.75;;;7.70;85.50;;;;;;4038309;29;20067;-82
2023/11/17 12:57:49;;;;;;;2.30;0.80;;;7.70;85.60;;;;;;4037159;29;20055;-83
2023/11/17 12:59:55;;;;;;;1.80;0.70;;;7.70;85.60;;;;;;4038412;29;20060;-82
2023/11/17 13:01:57;;;;;;;;;;;7.70;85.60;;;;;;4038721;29;20064;-84
2023/11/17 13:03:59;;;;;;;1.58;0.60;;;7.70;85.10;;;;;;4038147;29;19931;-80
2023/11/17 13:06:01;;;;;;;1.35;0.50;;;7.80;85.60;;;;;;4035994;29;20140;-78
2023/11/17 13:08:03;;;;;;;2.00;0.80;;;7.80;85.70;;;;;;4037531;29;20045;-79
2023/11/17 13:10:10;;;;;;;2.17;0.65;;;7.80;85.50;;;;;;4037336;29;20415;-78
2023/11/17 13:12:13;;;;;;;1.75;0.77;;;7.80;85.50;;;;;;4037531;29;20052;-79
2023/11/17 13:14:21;;;;;;;2.22;0.80;;;7.80;85.20;;;;;;4037903;29;20116;-80
2023/11/17 13:16:28;;;;;;;2.08;0.70;;;7.80;85.40;;;;;;4039659;29;20547;-82
2023/11/17 13:18:30;;;;;;;2.78;0.90;;;7.70;84.80;;;;;;4039958;29;20459;-80
2023/11/17 13:20:33;;;;;;;2.92;0.77;;;7.80;85.30;;;;;;4040996;29;20049;-81
2023/11/17 13:22:36;;;;;;;1.75;0.70;;;7.80;85.90;;;;;;4038190;29;20052;-79
2023/11/17 13:24:38;;;;;;;1.88;0.85;;;7.80;85.50;;;;;;4037704;29;20093;-81
2023/11/17 13:26:42;;;;;;;1.60;0.60;;;7.80;85.20;;;;;;4037870;29;20057;-82
2023/11/17 13:28:46;;;;;;;1.60;0.70;;;7.80;84.60;;;;;;4037068;29;20089;-86
2023/11/17 13:30:47;;;;;;;1.42;0.60;;;7.80;84.40;;;;;;4037218;29;20051;-79
2023/11/17 13:32:51;;;;;;;2.85;0.80;;;7.80;84.60;;;;;;4037654;29;20057;-80
2023/11/17 13:34:56;;;;;;;2.20;0.82;;;7.80;84.50;;;;;;4037399;29;20057;-79
2023/11/17 13:36:59;;;;;;;1.63;0.80;;;7.80;84.50;;;;;;4037833;29;20060;-81
2023/11/17 13:39:14;;;;;;;1.65;0.70;;;7.80;85.00;;;;;;4036727;29;20400;-79
2023/11/17 13:41:16;;;;;;;2.05;0.73;;;7.80;85.00;;;;;;4037635;29;20057;-79
2023/11/17 13:43:20;;;;;;;1.95;0.80;;;7.80;84.40;;;;;;4037797;29;20136;-79
2023/11/17 13:45:22;;;;;;;2.40;0.90;;;7.80;85.00;;;;;;4038669;29;20135;-86
2023/11/17 13:47:24;;;;;;;3.28;0.82;;;7.80;85.30;;;;;;4038018;29;20144;-83
2023/11/17 13:49:27;;;;;;;1.75;0.90;;;7.80;85.40;;;;;;4038007;29;20061;-81
2023/11/17 13:51:29;;;;;;;3.53;0.90;;;7.80;85.10;;;;;;4037811;29;20121;-81
2023/11/17 13:53:32;;;;;;;1.92;0.80;;;7.70;85.00;;;;;;4036862;29;20128;-89
2023/11/17 13:55:34;;;;;;;2.17;1.00;;;7.60;87.20;;;;;;4038350;29;20084;-86
2023/11/17 13:57:35;;;;;;;5.05;0.90;;;7.60;86.90;;;;;;4040988;29;20148;-82
2023/11/17 13:59:38;;;;;;;3.17;1.00;;;7.70;86.50;;;;;;4038775;29;20286;-86
2023/11/17 14:01:40;;;;;;;2.42;1.13;;;7.80;85.80;;;;;;4037932;29;20113;-86
2023/11/17 14:03:42;;;;;;;3.20;1.33;;;7.80;85.40;;;;;;4038112;29;20084;-87
2023/11/17 14:05:45;;;;;;;2.50;1.10;;;7.70;85.40;;;;;;4037129;29;20091;-86
2023/11/17 14:07:47;;;;;;;2.20;0.90;;;7.80;85.60;;;;;;4037690;29;20061;-88
2023/11/17 14:09:52;;;;;;;3.17;1.08;;;7.80;85.20;;;;;;4039864;29;20061;-88
2023/11/17 14:11:57;;;;;;;2.20;1.00;;;7.80;85.40;;;;;;4042354;29;20155;-89
2023/11/17 14:14:00;;;;;;;2.33;0.90;;;7.80;85.20;;;;;;4041106;29;20056;-90
2023/11/17 14:16:08;;;;;;;3.10;0.95;;;7.80;85.40;;;;;;4039884;29;20084;-85
2023/11/17 14:18:10;;;;;;;2.08;0.85;;;7.80;85.30;;;;;;4039183;29;20063;-87
2023/11/17 14:20:15;;;;;;;2.40;0.98;;;7.80;85.50;;;;;;4022020;29;20056;-89
2023/11/17 14:22:25;;;;;;;2.13;0.90;;;7.80;85.20;;;;;;4022508;29;20062;-88
2023/11/17 14:24:27;;;;;;;2.30;0.90;;;7.80;85.10;;;;;;4038361;29;20147;-88
2023/11/17 14:26:31;;;;;;;2.97;1.10;;;7.70;85.40;;;;;;4039114;29;20072;-86
2023/11/17 14:28:33;;;;;;;2.50;1.10;;;7.70;85.60;;;;;;4038300;29;20154;-87
2023/11/17 14:30:36;;;;;;;2.20;0.90;;;7.80;85.80;;;;;;4038719;29;20068;-88
2023/11/17 14:32:39;;;;;;;2.10;0.90;;;7.70;85.70;;;;;;4037904;29;20152;-87
2023/11/17 14:34:43;;;;;;;2.67;1.10;;;7.70;85.70;;;;;;4038515;29;20460;-89
2023/11/17 14:36:44;;;;;;;2.13;0.85;;;7.80;85.50;;;;;;4021682;29;20074;-89
2023/11/17 14:38:46;;;;;;;2.00;0.90;;;7.70;85.70;;;;;;4037328;29;20109;-88
2023/11/17 14:40:49;;;;;;;2.60;1.10;;;7.70;85.80;;;;;;4037825;29;20087;-87
2023/11/17 14:42:58;;;;;;;2.58;0.80;;;7.70;85.90;;;;;;4038407;29;20049;-87
2023/11/17 14:45:04;;;;;;;2.53;1.10;;;7.70;85.90;;;;;;4037704;29;20518;-90
2023/11/17 14:47:07;;;;;;;2.92;1.10;;;7.70;85.90;;;;;;4038010;29;20045;-87
2023/11/17 14:49:10;;;;;;;2.25;0.90;;;7.70;85.80;;;;;;4036679;29;20056;-88
2023/11/17 14:51:15;;;;;;;2.00;0.82;;;7.70;85.50;;;;;;4022124;29;20531;-89
2023/11/17 14:53:17;;;;;;;2.97;1.10;;;7.70;85.90;;;;;;4038535;29;20084;-88
2023/11/17 14:55:22;;;;;;;2.60;0.90;;;7.70;85.80;;;;;;4037969;29;20077;-88
2023/11/17 14:57:24;;;;;;;2.83;1.20;;;7.70;86.00;;;;;;4037533;29;20096;-88
2023/11/17 14:59:25;;;;;;;2.47;1.00;;;7.70;85.90;;;;;;4038474;29;20152;-87
2023/11/17 15:01:28;;;;;;;1.67;0.80;;;7.60;85.90;;;;;;4038554;29;20064;-87
2023/11/17 15:03:33;;;;;;;2.35;1.10;;;7.60;86.30;;;;;;4021591;29;20049;-86
2023/11/17 15:05:38;;;;;;;2.60;1.10;;;7.60;86.40;;;;;;4035879;29;20666;-88
2023/11/17 15:07:40;;;;;;;3.60;0.95;;;7.60;86.30;;;;;;4038685;29;20100;-88
2023/11/17 15:09:45;;;;;;;3.10;1.13;;;7.60;86.30;;;;;;4039032;29;20148;-88
2023/11/17 15:11:53;;;;;;;2.78;1.00;;;7.60;86.50;;;;;;4024956;29;20061;-87
2023/11/17 15:13:57;;;;;;;2.60;1.30;;;7.60;86.70;;;;;;4012385;29;20049;-88
2023/11/17 15:15:59;;;;;;;2.25;0.93;;;7.60;86.80;;;;;;4038574;29;20531;-87
2023/11/17 15:18:07;;;;;;;3.50;1.48;;;7.60;86.80;;;;;;4039044;29;20053;-89
2023/11/17 15:20:13;;;;;;;3.25;1.20;;;7.60;86.80;;;;;;4038119;29;20105;-87
2023/11/17 15:22:16;;;;;;;2.72;1.30;;;7.60;86.90;;;;;;4038198;29;20057;-89
2023/11/17 15:24:23;;;;;;;2.75;1.20;;;7.60;86.90;;;;;;4039474;29;20053;-90
2023/11/17 15:26:27;;;;;;;2.88;1.30;;;7.60;86.80;;;;;;4042235;29;20501;-89
2023/11/17 15:28:35;;;;;;;2.30;1.20;;;7.60;86.80;;;;;;4041803;29;20053;-88
2023/11/17 15:30:38;;;;;;;2.60;1.13;;;7.60;86.90;;;;;;4038925;29;20056;-88
2023/11/17 15:32:41;;;;;;;2.55;1.10;;;7.60;87.10;;;;;;4021614;29;20085;-89
2023/11/17 15:34:44;;;;;;;4.10;1.33;;;7.60;87.00;;;;;;4036248;29;20124;-89
2023/11/17 15:36:46;;;;;;;2.50;1.10;;;7.60;87.00;;;;;;4021418;29;20484;-89
2023/11/17 15:38:52;;;;;;;2.80;1.20;;;7.60;86.90;;;;;;4037422;29;20148;-89
2023/11/17 15:40:57;;;;;;;3.17;1.30;;;7.60;86.90;;;;;;4037188;29;20061;-88
2023/11/17 15:42:59;;;;;;;3.13;1.33;;;7.60;86.90;;;;;;4021226;29;20053;-89
2023/11/17 15:45:11;;;;;;;3.13;1.20;;;7.60;86.80;;;;;;4036549;29;20120;-87
2023/11/17 15:47:13;;;;;;;2.65;1.10;;;7.60;86.90;;;;;;4023086;29;20165;-87
2023/11/17 15:49:15;;;;;;;3.40;1.25;;;7.60;86.90;;;;;;4040718;29;20056;-88
2023/11/17 15:51:17;;;;;;;3.55;1.45;;;7.60;86.90;;;;;;4040842;29;20057;-90
2023/11/17 15:53:19;;;;;;;3.63;1.77;;;7.50;87.00;;;;;;4036957;29;20065;-88
2023/11/17 15:55:21;;;;;;;2.90;1.27;;;7.60;86.80;;;;;;4037161;29;20049;-86
2023/11/17 15:57:24;;;;;;;3.40;1.40;;;7.60;86.70;;;;;;4019472;29;20106;-86
2023/11/17 15:59:26;;;;;;;3.03;1.25;;;7.60;86.60;;;;;;4036163;29;20117;-86
2023/11/17 16:01:28;;;;;;;3.03;1.30;;;7.50;86.50;;;;;;4037157;29;20071;-89
2023/11/17 16:03:31;;;;;;;2.95;1.50;;;7.50;86.40;;;;;;4034505;29;20064;-89
2023/11/17 16:05:33;;;;;;;3.33;1.60;;;7.50;86.10;;;;;;4040472;29;20081;-87
2023/11/17 16:07:35;;;;;;;3.35;1.67;;;7.50;86.10;;;;;;4046657;29;20056;-88
2023/11/17 16:09:37;;;;;;;5.55;1.70;;;7.50;86.00;;;;;;4043255;29;20053;-87
2023/11/17 16:11:41;;;;;;;3.17;1.58;;;7.50;86.00;;;;;;4037847;29;20055;-84
2023/11/17 16:13:43;;;;;;;4.30;1.63;;;7.50;85.80;;;;;;4037551;29;20085;-89
2023/11/17 16:15:47;;;;;;;3.83;1.23;;;7.50;85.70;;;;;;4042273;29;20081;-89
2023/11/17 16:17:54;;;;;;;3.67;1.50;;;7.50;85.40;;;;;;4041612;29;20053;-89
2023/11/17 16:19:56;;;;;;;2.53;1.10;;;7.50;85.50;;;;;;4039544;29;20525;-89
2023/11/17 16:21:58;;;;;;;2.85;1.40;;;7.50;85.50;;;;;;4037812;29;20079;-89
2023/11/17 16:24:01;;;;;;;3.25;1.50;;;7.50;86.20;;;;;;4041474;29;20067;-91
2023/11/17 16:26:05;;;;;;;3.70;1.20;;;7.40;85.60;;;;;;4047554;29;20068;-88
2023/11/17 16:38:13;;;;;;;3.65;1.50;;;7.40;84.70;;;;;;4014950;29;20061;-89
2023/11/17 16:49:41;;;;;;;6.32;2.10;;;7.40;84.80;;;;;;3990473;29;20073;-88
2023/11/17 16:52:36;;;;;;;3.78;2.17;;;7.40;84.80;;;;;;4006885;29;20075;-89
2023/11/17 17:00:45;;;;;;;4.72;2.55;;;7.20;85.10;;;;;;3952331;30;20105;-85
2023/11/17 17:06:17;;;;;;;4.80;2.65;;;7.20;85.30;;;;;;4041000;29;20064;-84
2023/11/17 17:20:12;;;;;;;6.40;3.20;;;7.00;85.80;;;;;;3982359;29;20054;-85
2023/11/17 17:22:44;;;;;;;6.55;3.30;;;7.00;85.90;;;;;;3980245;29;20062;-85
2023/11/17 17:28:49;;;;;;;5.72;3.40;;;7.00;86.10;;;;;;3929841;30;20059;-85
2023/11/17 17:37:38;;;;;;;7.60;3.67;;;6.90;86.50;;;;;;3951806;29;20525;-86
2023/11/17 17:40:08;;;;;;;5.50;3.00;;;6.90;86.60;;;;;;4021750;29;20048;-88
2023/11/17 17:42:16;;;;;;;5.85;3.40;;;6.80;86.60;;;;;;4053336;29;20139;-88
2023/11/17 17:48:16;;;;;;;6.53;3.50;;;6.80;86.90;;;;;;4040087;29;20059;-87
2023/11/17 17:50:44;;;;;;;8.95;4.55;;;6.80;86.90;;;;;;4038824;29;20060;-88
2023/11/17 17:53:20;;;;;;;5.72;3.50;;;6.80;87.00;;;;;;4034545;29;20113;-86